createdAt,value
2018-09-12T00:00:20.565Z,73.90
2018-09-12T00:02:50.257Z,76.07
2018-09-12T00:05:20.053Z,76.97
2018-09-12T00:07:49.937Z,79.03
2018-09-12T00:10:19.697Z,80.17
2018-09-12T00:12:49.420Z,81.09
2018-09-12T00:15:19.157Z,81.52
2018-09-12T00:17:49.006Z,82.21
2018-09-12T00:20:18.722Z,83.08
2018-09-12T00:22:48.408Z,83.37
2018-09-12T00:25:18.143Z,83.60
2018-09-12T00:27:47.998Z,84.70
2018-09-12T00:30:17.720Z,84.72
2018-09-12T00:32:47.397Z,85.21
2018-09-12T00:35:17.065Z,86.00
2018-09-12T00:37:46.899Z,85.89
2018-09-12T00:40:16.597Z,86.29
2018-09-12T00:42:46.228Z,86.36
2018-09-12T00:45:15.959Z,87.37
2018-09-12T00:47:45.627Z,87.96
2018-09-12T00:50:15.474Z,88.90
2018-09-12T00:52:45.534Z,89.05
2018-09-12T00:55:15.268Z,89.63
2018-09-12T00:57:44.982Z,89.95
2018-09-12T01:00:15.017Z,90.92
2018-09-12T01:02:44.880Z,90.17
2018-09-12T01:05:14.717Z,90.64
2018-09-12T01:07:44.417Z,91.35
2018-09-12T01:10:14.105Z,91.28
2018-09-12T01:12:43.763Z,91.74
2018-09-12T01:15:13.500Z,91.50
2018-09-12T01:17:43.185Z,91.87
2018-09-12T01:20:13.086Z,91.94
2018-09-12T01:22:42.768Z,92.34
2018-09-12T01:25:12.515Z,92.37
2018-09-12T01:27:42.372Z,92.51
2018-09-12T01:30:16.137Z,93.12
2018-09-12T01:32:45.767Z,92.86
2018-09-12T01:35:15.476Z,92.52
2018-09-12T01:37:45.294Z,92.86
2018-09-12T01:40:15.374Z,92.58
2018-09-12T01:42:45.467Z,92.68
2018-09-12T01:45:17.403Z,92.45
2018-09-12T01:47:47.405Z,93.06
2018-09-12T01:50:17.197Z,92.15
2018-09-12T01:52:48.110Z,92.74
2018-09-12T01:55:17.950Z,92.39
2018-09-12T01:57:47.674Z,93.11
2018-09-12T02:00:19.049Z,93.03
2018-09-12T02:02:49.274Z,92.16
2018-09-12T02:05:19.000Z,91.96
2018-09-12T02:07:48.664Z,91.80
2018-09-12T02:10:18.384Z,92.31
2018-09-12T02:12:48.084Z,92.76
2018-09-12T02:15:17.893Z,92.91
2018-09-12T02:17:47.820Z,93.62
2018-09-12T02:20:17.528Z,93.54
2018-09-12T02:22:47.250Z,93.91
2018-09-12T02:25:17.017Z,94.77
2018-09-12T02:27:46.711Z,95.25
2018-09-12T02:30:16.512Z,95.62
2018-09-12T02:32:46.221Z,95.30
2018-09-12T02:35:15.883Z,96.24
2018-09-12T02:37:45.582Z,96.77
2018-09-12T02:40:15.260Z,97.02
2018-09-12T02:42:45.188Z,97.11
2018-09-12T02:45:14.837Z,96.90
2018-09-12T02:47:44.666Z,98.47
2018-09-12T02:50:14.648Z,98.33
2018-09-12T02:52:44.325Z,98.02
2018-09-12T02:55:14.376Z,98.76
2018-09-12T02:57:44.078Z,99.25
2018-09-12T03:00:13.780Z,98.50
2018-09-12T03:02:43.475Z,97.95
2018-09-12T03:05:13.253Z,97.74
2018-09-12T03:07:42.997Z,97.61
2018-09-12T03:10:12.740Z,98.04
2018-09-12T03:12:42.592Z,97.49
2018-09-12T03:15:12.225Z,97.68
2018-09-12T03:17:41.919Z,98.39
2018-09-12T03:20:11.657Z,99.49
2018-09-12T03:22:41.534Z,99.83
2018-09-12T03:25:11.201Z,100.00
2018-09-12T03:27:41.033Z,100.00
2018-09-12T03:30:10.389Z,100.00
2018-09-12T03:32:40.143Z,100.00
2018-09-12T03:35:09.878Z,100.00
2018-09-12T03:37:39.652Z,100.00
2018-09-12T03:40:09.309Z,100.00
2018-09-12T03:42:39.087Z,100.00
2018-09-12T03:45:08.767Z,100.00
2018-09-12T03:47:38.517Z,100.00
2018-09-12T03:50:08.296Z,100.00
2018-09-12T03:52:39.266Z,100.00
2018-09-12T03:55:11.128Z,100.00
2018-09-12T03:57:42.931Z,100.00
2018-09-12T04:00:13.449Z,100.00
2018-09-12T04:02:43.234Z,100.00
2018-09-12T04:05:12.925Z,100.00
2018-09-12T04:07:42.717Z,100.00
2018-09-12T04:10:12.562Z,100.00
2018-09-12T04:12:42.221Z,100.00
2018-09-12T04:15:11.902Z,100.00
2018-09-12T04:17:41.647Z,99.71
2018-09-12T04:20:11.334Z,99.74
2018-09-12T04:22:41.147Z,100.00
2018-09-12T04:25:10.940Z,100.00
2018-09-12T04:27:40.591Z,100.00
2018-09-12T04:30:10.426Z,100.00
2018-09-12T04:32:40.177Z,100.00
2018-09-12T04:35:10.127Z,100.00
2018-09-12T04:37:39.927Z,100.00
2018-09-12T04:40:09.906Z,100.00
2018-09-12T04:42:39.550Z,100.00
2018-09-12T04:45:09.345Z,100.00
2018-09-12T04:47:39.090Z,100.00
2018-09-12T04:50:08.945Z,100.00
2018-09-12T04:52:38.676Z,100.00
2018-09-12T04:55:09.717Z,100.00
2018-09-12T04:57:39.493Z,100.00
2018-09-12T05:00:09.208Z,100.00
2018-09-12T05:02:39.045Z,100.00
2018-09-12T05:05:08.764Z,100.00
2018-09-12T05:07:38.477Z,100.00
2018-09-12T05:10:08.237Z,100.00
2018-09-12T05:12:37.933Z,100.00
2018-09-12T05:15:07.843Z,100.00
2018-09-12T05:17:37.634Z,100.00
2018-09-12T05:20:07.553Z,100.00
2018-09-12T05:22:37.465Z,100.00
2018-09-12T05:25:07.324Z,100.00
2018-09-12T05:27:37.195Z,100.00
2018-09-12T05:30:07.536Z,100.00
2018-09-12T05:32:37.288Z,100.00
2018-09-12T05:35:07.093Z,100.00
2018-09-12T05:37:36.865Z,100.00
2018-09-12T05:40:07.433Z,100.00
2018-09-12T05:42:37.236Z,100.00
2018-09-12T05:45:07.012Z,100.00
2018-09-12T05:47:36.657Z,100.00
2018-09-12T05:50:06.586Z,100.00
2018-09-12T05:52:36.306Z,100.00
2018-09-12T05:55:06.211Z,99.89
2018-09-12T05:57:35.969Z,96.68
2018-09-12T06:00:06.338Z,95.44
2018-09-12T06:02:36.022Z,93.16
2018-09-12T06:05:06.233Z,92.33
2018-09-12T06:07:35.950Z,90.81
2018-09-12T06:10:06.053Z,89.71
2018-09-12T06:12:35.820Z,89.17
2018-09-12T06:15:05.756Z,87.01
2018-09-12T06:17:35.546Z,84.40
2018-09-12T06:20:05.333Z,83.41
2018-09-12T06:22:35.309Z,82.24
2018-09-12T06:25:05.009Z,80.05
2018-09-12T06:27:34.818Z,80.84
2018-09-12T06:30:04.604Z,79.93
2018-09-12T06:32:34.533Z,79.25
2018-09-12T06:35:04.509Z,80.64
2018-09-12T06:37:34.352Z,80.03
2018-09-12T06:40:04.081Z,79.37
2018-09-12T06:42:33.954Z,80.85
2018-09-12T06:45:04.051Z,80.27
2018-09-12T06:47:33.809Z,77.73
2018-09-12T06:50:03.718Z,75.44
2018-09-12T06:52:33.454Z,74.82
2018-09-12T06:55:03.370Z,73.75
2018-09-12T06:57:33.069Z,71.78
2018-09-12T07:00:02.745Z,69.44
2018-09-12T07:02:32.577Z,68.73
2018-09-12T07:05:02.382Z,69.60
2018-09-12T07:07:32.252Z,69.71
2018-09-12T07:10:01.972Z,69.44
2018-09-12T07:12:32.261Z,69.95
2018-09-12T07:15:02.178Z,69.36
2018-09-12T07:17:31.958Z,69.47
2018-09-12T07:20:01.809Z,69.31
2018-09-12T07:22:31.489Z,68.20
2018-09-12T07:25:01.251Z,71.25
2018-09-12T07:27:31.004Z,68.42
2018-09-12T07:30:00.734Z,68.39
2018-09-12T07:32:30.409Z,69.14
2018-09-12T07:35:00.099Z,70.60
2018-09-12T07:37:29.808Z,69.20
2018-09-12T07:39:59.629Z,68.26
2018-09-12T07:42:29.311Z,68.18
2018-09-12T07:44:58.967Z,68.61
2018-09-12T07:47:28.729Z,67.70
2018-09-12T07:49:58.424Z,65.07
2018-09-12T07:52:28.113Z,61.14
2018-09-12T07:54:58.033Z,61.47
2018-09-12T07:57:27.731Z,62.10
2018-09-12T07:59:57.588Z,59.76
2018-09-12T08:02:27.192Z,57.37
2018-09-12T08:04:57.192Z,57.24
2018-09-12T08:07:27.093Z,53.67
2018-09-12T08:09:56.829Z,52.42
2018-09-12T08:12:26.624Z,51.30
2018-09-12T08:14:56.453Z,53.99
2018-09-12T08:17:26.128Z,53.55
2018-09-12T08:19:55.824Z,52.28
2018-09-12T08:22:25.567Z,50.51
2018-09-12T08:24:55.379Z,50.68
2018-09-12T08:27:25.073Z,47.80
2018-09-12T08:29:54.965Z,46.72
2018-09-12T08:32:24.762Z,44.58
2018-09-12T08:34:54.569Z,45.36
2018-09-12T08:37:24.322Z,45.34
2018-09-12T08:39:53.973Z,43.87
2018-09-12T08:42:23.801Z,42.61
2018-09-12T08:44:53.592Z,42.47
2018-09-12T08:47:23.389Z,45.40
2018-09-12T08:49:53.237Z,42.94
2018-09-12T08:52:23.059Z,42.78
2018-09-12T08:54:53.104Z,41.83
2018-09-12T08:57:22.982Z,44.31
2018-09-12T08:59:52.702Z,44.08
2018-09-12T09:02:22.785Z,40.85
2018-09-12T09:04:52.542Z,42.30
2018-09-12T09:07:22.431Z,40.34
2018-09-12T09:09:53.088Z,39.47
2018-09-12T09:12:22.887Z,40.37
2018-09-12T09:14:52.614Z,40.57
2018-09-12T09:17:22.365Z,41.08
2018-09-12T09:19:52.061Z,40.14
2018-09-12T09:22:21.733Z,40.63
2018-09-12T09:24:51.438Z,40.54
2018-09-12T09:27:21.081Z,42.75
2018-09-12T09:29:51.054Z,39.15
2018-09-12T09:32:20.761Z,38.65
2018-09-12T09:34:50.447Z,38.09
2018-09-12T09:37:20.174Z,38.59
2018-09-12T09:39:49.884Z,38.88
2018-09-12T09:42:19.622Z,40.14
2018-09-12T09:44:49.353Z,38.88
2018-09-12T09:47:19.044Z,37.11
2018-09-12T09:49:48.785Z,36.76
2018-09-12T09:52:18.446Z,37.98
2018-09-12T09:54:48.253Z,39.87
2018-09-12T09:57:17.971Z,40.30
2018-09-12T09:59:47.764Z,38.90
2018-09-12T10:02:20.624Z,39.41
2018-09-12T10:04:55.321Z,39.11
2018-09-12T10:07:30.220Z,36.95
2018-09-12T10:10:03.872Z,39.68
2018-09-12T10:12:34.686Z,39.63
2018-09-12T10:15:05.610Z,38.71
2018-09-12T10:17:36.286Z,39.39
2018-09-12T10:20:06.189Z,36.42
2018-09-12T10:22:35.813Z,37.72
2018-09-12T10:25:05.690Z,39.78
2018-09-12T10:27:35.370Z,38.14
2018-09-12T10:30:06.779Z,38.03
2018-09-12T10:32:36.486Z,36.90
2018-09-12T10:35:06.212Z,36.11
2018-09-12T10:37:36.316Z,39.27
2018-09-12T10:40:06.197Z,41.87
2018-09-12T10:42:36.030Z,43.67
2018-09-12T10:45:06.542Z,43.45
2018-09-12T10:47:36.305Z,43.10
2018-09-12T10:50:06.209Z,45.35
2018-09-12T10:52:36.061Z,46.44
2018-09-12T10:55:05.812Z,47.97
2018-09-12T10:57:35.528Z,49.35
2018-09-12T11:00:06.181Z,49.72
2018-09-12T11:02:36.136Z,50.59
2018-09-12T11:05:06.165Z,50.49
2018-09-12T11:07:35.920Z,50.57
2018-09-12T11:10:05.785Z,52.64
2018-09-12T11:12:35.444Z,50.50
2018-09-12T11:15:05.754Z,48.93
2018-09-12T11:17:35.482Z,48.24
2018-09-12T11:20:05.390Z,44.44
2018-09-12T11:22:35.096Z,42.97
2018-09-12T11:25:04.897Z,39.37
2018-09-12T11:27:34.666Z,38.14
2018-09-12T11:30:04.430Z,39.83
2018-09-12T11:32:34.164Z,41.37
2018-09-12T11:35:03.944Z,40.34
2018-09-12T11:37:33.810Z,39.98
2018-09-12T11:40:03.615Z,39.40
2018-09-12T11:42:33.300Z,37.67
2018-09-12T11:45:02.921Z,38.79
2018-09-12T11:47:32.635Z,38.85
2018-09-12T11:50:02.503Z,37.64
2018-09-12T11:52:32.693Z,37.67
2018-09-12T11:55:02.447Z,37.73
2018-09-12T11:57:32.620Z,38.77
2018-09-12T12:00:02.340Z,39.36
2018-09-12T12:02:32.223Z,40.51
2018-09-12T12:05:01.916Z,38.81
2018-09-12T12:07:31.561Z,39.64
2018-09-12T12:10:01.331Z,38.92
2018-09-12T12:12:31.681Z,38.41
2018-09-12T12:15:01.696Z,38.68
2018-09-12T12:17:31.538Z,40.82
2018-09-12T12:20:01.336Z,42.27
2018-09-12T12:22:31.190Z,39.52
2018-09-12T12:25:01.030Z,39.30
2018-09-12T12:27:31.056Z,42.24
2018-09-12T12:30:00.785Z,44.28
2018-09-12T12:32:30.616Z,42.39
2018-09-12T12:35:00.829Z,42.48
2018-09-12T12:37:30.597Z,42.23
2018-09-12T12:40:00.310Z,41.63
2018-09-12T12:42:30.216Z,41.40
2018-09-12T12:45:00.123Z,40.41
2018-09-12T12:47:29.945Z,42.55
2018-09-12T12:49:59.777Z,42.25
2018-09-12T12:52:29.708Z,43.06
2018-09-12T12:54:59.726Z,43.16
2018-09-12T12:57:29.629Z,42.85
2018-09-12T12:59:59.366Z,43.35
2018-09-12T13:02:29.110Z,42.92
2018-09-12T13:04:58.809Z,42.09
2018-09-12T13:07:29.143Z,40.30
2018-09-12T13:09:59.076Z,40.39
2018-09-12T13:12:29.508Z,39.12
2018-09-12T13:14:59.502Z,38.28
2018-09-12T13:17:29.298Z,40.60
2018-09-12T13:19:59.017Z,39.57
2018-09-12T13:22:28.748Z,40.60
2018-09-12T13:24:58.458Z,40.70
2018-09-12T13:27:28.292Z,41.11
2018-09-12T13:29:58.206Z,39.57
2018-09-12T13:32:28.305Z,40.00
2018-09-12T13:34:58.174Z,43.24
2018-09-12T13:37:27.921Z,44.69
2018-09-12T13:39:58.013Z,45.51
2018-09-12T13:42:29.043Z,45.51
2018-09-12T13:44:58.964Z,43.70
2018-09-12T13:47:28.803Z,42.13
2018-09-12T13:49:59.900Z,41.22
2018-09-12T13:52:30.463Z,42.71
2018-09-12T13:55:00.295Z,41.23
2018-09-12T13:57:30.291Z,40.99
2018-09-12T14:00:01.554Z,40.62
2018-09-12T14:02:33.767Z,39.47
2018-09-12T14:05:06.749Z,40.41
2018-09-12T14:07:36.544Z,40.70
2018-09-12T14:10:06.471Z,42.90
2018-09-12T14:12:36.323Z,43.12
2018-09-12T14:15:06.127Z,43.75
2018-09-12T14:17:35.869Z,45.35
2018-09-12T14:20:05.685Z,47.45
2018-09-12T14:22:36.222Z,46.99
2018-09-12T14:25:05.998Z,48.29
2018-09-12T14:27:35.884Z,49.04
2018-09-12T14:30:05.886Z,50.00
2018-09-12T14:32:36.208Z,50.74
2018-09-12T14:35:06.061Z,52.30
2018-09-12T14:37:36.146Z,54.43
2018-09-12T14:40:06.585Z,55.40
2018-09-12T14:42:36.753Z,55.61
2018-09-12T14:45:07.499Z,55.89
2018-09-12T14:47:37.220Z,56.30
2018-09-12T14:50:07.467Z,59.67
2018-09-12T14:52:37.468Z,60.37
2018-09-12T14:55:07.267Z,62.01
2018-09-12T14:57:37.080Z,62.93
2018-09-12T15:00:07.139Z,63.60
2018-09-12T15:02:37.813Z,63.38
2018-09-12T15:05:08.786Z,63.16
2018-09-12T15:07:38.504Z,61.78
2018-09-12T15:10:08.580Z,63.18
2018-09-12T15:12:38.390Z,64.02
2018-09-12T15:15:08.349Z,63.50
2018-09-12T15:17:38.029Z,64.37
2018-09-12T15:20:07.953Z,64.67
2018-09-12T15:22:37.981Z,67.44
2018-09-12T15:25:07.683Z,66.69
2018-09-12T15:27:37.535Z,66.29
2018-09-12T15:30:07.480Z,66.42
2018-09-12T15:32:37.252Z,66.21
2018-09-12T15:35:07.075Z,64.21
2018-09-12T15:37:36.722Z,63.05
2018-09-12T15:40:06.754Z,64.38
2018-09-12T15:42:36.588Z,66.02
2018-09-12T15:45:06.295Z,66.97
2018-09-12T15:47:36.067Z,69.37
2018-09-12T15:50:06.266Z,70.51
2018-09-12T15:52:35.989Z,71.54
2018-09-12T15:55:05.827Z,72.54
2018-09-12T15:57:35.505Z,73.71
2018-09-12T16:00:05.775Z,73.54
2018-09-12T16:02:35.571Z,74.39
2018-09-12T16:05:05.719Z,74.40
2018-09-12T16:07:35.413Z,73.63
2018-09-12T16:10:05.291Z,72.48
2018-09-12T16:12:35.061Z,73.45
2018-09-12T16:15:05.038Z,74.55
2018-09-12T16:17:34.775Z,74.75
2018-09-12T16:20:04.706Z,76.77
2018-09-12T16:22:34.457Z,75.36
2018-09-12T16:25:04.241Z,76.82
2018-09-12T16:27:35.069Z,78.33
2018-09-12T16:30:04.865Z,79.08
2018-09-12T16:32:34.665Z,78.34
2018-09-12T16:35:04.425Z,79.11
2018-09-12T16:37:34.409Z,78.92
2018-09-12T16:40:04.218Z,79.20
2018-09-12T16:42:33.849Z,78.31
2018-09-12T16:45:03.537Z,77.88
2018-09-12T16:47:33.449Z,77.08
2018-09-12T16:50:03.233Z,78.04
2018-09-12T16:52:33.352Z,78.19
2018-09-12T16:55:03.093Z,82.07
2018-09-12T16:57:33.012Z,81.99
2018-09-12T17:00:02.929Z,82.63
2018-09-12T17:02:32.645Z,83.66
2018-09-12T17:05:02.447Z,83.61
2018-09-12T17:07:32.161Z,84.70
2018-09-12T17:10:01.847Z,85.71
2018-09-12T17:12:31.537Z,84.74
2018-09-12T17:15:01.228Z,85.95
2018-09-12T17:17:31.559Z,84.93
2018-09-12T17:20:01.324Z,85.85
2018-09-12T17:22:30.981Z,85.61
2018-09-12T17:25:00.779Z,86.84
2018-09-12T17:27:31.834Z,86.57
2018-09-12T17:30:02.463Z,85.44
2018-09-12T17:32:32.431Z,85.73
2018-09-12T17:35:01.968Z,87.18
2018-09-12T17:37:31.958Z,86.49
2018-09-12T17:40:01.858Z,86.12
2018-09-12T17:42:32.474Z,85.97
2018-09-12T17:45:02.244Z,84.56
2018-09-12T17:47:32.018Z,85.06
2018-09-12T17:50:01.766Z,84.14
2018-09-12T17:52:32.450Z,84.81
2018-09-12T17:55:02.232Z,84.50
2018-09-12T17:57:31.937Z,85.32
2018-09-12T18:00:01.766Z,85.49
2018-09-12T18:02:31.622Z,85.23
2018-09-12T18:05:01.425Z,84.56
2018-09-12T18:07:31.245Z,84.80
2018-09-12T18:10:01.809Z,85.37
2018-09-12T18:12:31.537Z,86.43
2018-09-12T18:15:01.385Z,85.54
2018-09-12T18:17:32.167Z,85.67
2018-09-12T18:20:01.953Z,86.76
2018-09-12T18:22:31.707Z,86.79
2018-09-12T18:25:01.566Z,87.46
2018-09-12T18:27:31.375Z,88.17
2018-09-12T18:30:01.239Z,88.77
2018-09-12T18:32:31.145Z,88.16
2018-09-12T18:35:00.884Z,88.77
2018-09-12T18:37:31.457Z,89.16
2018-09-12T18:40:01.153Z,88.80
2018-09-12T18:42:30.918Z,89.56
2018-09-12T18:45:01.813Z,90.09
2018-09-12T18:47:32.736Z,89.51
2018-09-12T18:50:02.565Z,89.89
2018-09-12T18:52:32.574Z,89.36
2018-09-12T18:55:02.398Z,89.66
2018-09-12T18:57:32.225Z,89.37
2018-09-12T19:00:02.291Z,89.78
2018-09-12T19:02:32.598Z,90.89
2018-09-12T19:05:02.622Z,90.39
2018-09-12T19:07:32.389Z,91.37
2018-09-12T19:10:03.939Z,90.49
2018-09-12T19:12:34.337Z,90.58
2018-09-12T19:15:04.333Z,90.76
2018-09-12T19:17:34.334Z,91.08
2018-09-12T19:20:04.370Z,91.88
2018-09-12T19:22:34.209Z,92.29
2018-09-12T19:25:04.249Z,92.35
2018-09-12T19:27:34.219Z,91.45
2018-09-12T19:30:04.221Z,91.39
2018-09-12T19:32:34.110Z,91.50
2018-09-12T19:35:03.897Z,91.24
2018-09-12T19:37:34.695Z,91.25
2018-09-12T19:40:05.245Z,92.67
2018-09-12T19:42:35.132Z,91.74
2018-09-12T19:45:04.911Z,91.51
2018-09-12T19:47:34.773Z,90.80
2018-09-12T19:50:04.841Z,90.22
2018-09-12T19:52:34.849Z,91.06
2018-09-12T19:55:05.853Z,90.54
2018-09-12T19:57:35.779Z,90.43
2018-09-12T20:00:10.301Z,90.00
2018-09-12T20:02:40.121Z,89.69
2018-09-12T20:05:10.034Z,89.81
2018-09-12T20:07:40.221Z,88.95
2018-09-12T20:10:10.837Z,88.55
2018-09-12T20:12:41.653Z,87.93
2018-09-12T20:15:11.805Z,88.13
2018-09-12T20:17:41.591Z,88.17
2018-09-12T20:22:55.048Z,88.83
2018-09-12T20:25:25.015Z,89.48
2018-09-12T20:27:54.741Z,88.92
2018-09-12T20:30:24.503Z,89.00
2018-09-12T20:32:54.349Z,88.53
2018-09-12T20:35:24.391Z,89.02
2018-09-12T20:37:54.217Z,89.59
2018-09-12T20:40:23.963Z,88.76
2018-09-12T20:42:53.811Z,89.68
2018-09-12T20:45:23.883Z,90.02
2018-09-12T20:47:53.778Z,89.39
2018-09-12T20:50:23.581Z,90.11
2018-09-12T20:52:53.370Z,89.53
2018-09-12T20:55:23.221Z,89.39
2018-09-12T20:57:56.958Z,89.96
2018-09-12T21:00:26.822Z,89.97
2018-09-12T21:02:56.667Z,89.97
2018-09-12T21:05:26.323Z,90.80
2018-09-12T21:07:56.033Z,89.97
2018-09-12T21:10:25.733Z,89.66
2018-09-12T21:12:55.582Z,90.21
2018-09-12T21:15:25.322Z,90.06
2018-09-12T21:17:55.023Z,90.35
2018-09-12T21:20:24.734Z,88.80
2018-09-12T21:22:54.566Z,89.39
2018-09-12T21:25:24.222Z,89.22
2018-09-12T21:27:54.110Z,87.79
2018-09-12T21:30:23.783Z,88.77
2018-09-12T21:32:54.501Z,88.70
2018-09-12T21:35:24.291Z,88.75
2018-09-12T21:37:54.144Z,88.18
2018-09-12T21:40:23.908Z,88.99
2018-09-12T21:42:53.843Z,89.71
2018-09-12T21:45:23.636Z,90.24
2018-09-12T21:47:53.356Z,89.92
2018-09-12T21:50:23.290Z,89.55
2018-09-12T21:52:53.149Z,89.46
2018-09-12T21:55:22.904Z,89.19
2018-09-12T21:57:52.673Z,89.58
2018-09-12T22:00:22.669Z,89.96
2018-09-12T22:02:52.397Z,90.07
2018-09-12T22:05:22.272Z,89.80
2018-09-12T22:07:52.129Z,89.94
2018-09-12T22:10:21.794Z,89.72
2018-09-12T22:12:51.594Z,89.26
2018-09-12T22:15:21.528Z,89.43
2018-09-12T22:17:51.229Z,89.76
2018-09-12T22:20:21.018Z,89.93
2018-09-12T22:22:50.860Z,90.19
2018-09-12T22:25:20.730Z,90.51
2018-09-12T22:27:50.450Z,90.00
2018-09-12T22:30:20.118Z,90.75
2018-09-12T22:32:49.928Z,89.93
2018-09-12T22:35:19.683Z,91.16
2018-09-12T22:37:49.400Z,91.53
2018-09-12T22:40:19.075Z,91.97
2018-09-12T22:42:48.761Z,91.82
2018-09-12T22:45:19.650Z,90.94
2018-09-12T22:47:49.379Z,90.96
2018-09-12T22:50:19.862Z,91.17
2018-09-12T22:52:49.616Z,91.15
2018-09-12T22:55:19.316Z,90.63
2018-09-12T22:57:49.104Z,90.57
2018-09-12T23:00:18.976Z,90.25
2018-09-12T23:02:48.644Z,90.39
2018-09-12T23:05:18.337Z,90.55
2018-09-12T23:07:48.062Z,90.51
2018-09-12T23:10:17.926Z,90.34
2018-09-12T23:12:47.908Z,90.01
2018-09-12T23:15:17.605Z,90.25
2018-09-12T23:17:47.420Z,90.90
2018-09-12T23:20:17.339Z,89.42
2018-09-12T23:22:47.310Z,90.77
2018-09-12T23:25:17.926Z,90.34
2018-09-12T23:27:47.596Z,90.70
2018-09-12T23:30:17.441Z,90.80
2018-09-12T23:32:47.419Z,90.86
2018-09-12T23:35:17.214Z,90.83
2018-09-12T23:37:46.888Z,91.68
2018-09-12T23:40:16.812Z,90.74
2018-09-12T23:42:46.461Z,92.16
2018-09-12T23:45:16.281Z,91.73
2018-09-12T23:47:46.147Z,90.80
2018-09-12T23:50:15.965Z,91.95
2018-09-12T23:52:46.222Z,91.62
2018-09-12T23:55:15.935Z,91.98
2018-09-12T23:57:45.634Z,91.64
